createdAt,value
2018-05-13T00:01:52.458Z,18.70
2018-05-13T00:04:26.815Z,18.63
2018-05-13T00:07:01.552Z,18.58
2018-05-13T00:09:36.906Z,18.57
2018-05-13T00:12:11.887Z,18.57
2018-05-13T00:14:46.967Z,18.58
2018-05-13T00:17:21.812Z,18.57
2018-05-13T00:19:57.002Z,18.49
2018-05-13T00:22:31.737Z,18.41
2018-05-13T00:25:06.769Z,18.38
2018-05-13T00:27:41.829Z,18.35
2018-05-13T00:30:16.694Z,18.32
2018-05-13T00:32:52.010Z,18.25
2018-05-13T00:35:26.869Z,18.19
2018-05-13T00:38:02.278Z,18.19
2018-05-13T00:40:37.494Z,18.20
2018-05-13T00:43:12.782Z,18.22
2018-05-13T00:45:47.910Z,18.21
2018-05-13T00:48:22.664Z,18.17
2018-05-13T00:50:57.975Z,18.17
2018-05-13T00:53:32.814Z,18.18
2018-05-13T00:56:07.541Z,18.14
2018-05-13T00:58:42.890Z,18.13
2018-05-13T01:01:17.827Z,18.09
2018-05-13T01:03:52.942Z,18.10
2018-05-13T01:06:27.690Z,18.09
2018-05-13T01:09:02.461Z,18.08
2018-05-13T01:11:37.849Z,18.05
2018-05-13T01:14:12.845Z,18.04
2018-05-13T01:16:47.947Z,18.07
2018-05-13T01:19:22.659Z,18.09
2018-05-13T01:21:57.831Z,18.08
2018-05-13T01:24:33.013Z,18.06
2018-05-13T01:27:07.802Z,18.01
2018-05-13T01:29:43.011Z,17.98
2018-05-13T01:32:17.869Z,17.94
2018-05-13T01:34:53.073Z,17.90
2018-05-13T01:37:27.902Z,17.91
2018-05-13T01:40:03.193Z,17.87
2018-05-13T01:42:38.298Z,17.77
2018-05-13T01:45:13.758Z,17.66
2018-05-13T01:47:49.046Z,17.55
2018-05-13T01:50:24.090Z,17.46
2018-05-13T01:52:59.122Z,17.40
2018-05-13T01:55:33.582Z,17.35
2018-05-13T01:58:08.329Z,17.29
2018-05-13T02:00:43.212Z,17.21
2018-05-13T02:03:18.295Z,17.15
2018-05-13T02:05:53.098Z,17.09
2018-05-13T02:08:27.949Z,17.01
2018-05-13T02:11:02.985Z,16.98
2018-05-13T02:13:37.563Z,16.95
2018-05-13T02:16:12.897Z,16.93
2018-05-13T02:18:47.898Z,16.91
2018-05-13T02:21:23.015Z,16.86
2018-05-13T02:23:58.266Z,16.80
2018-05-13T02:26:33.206Z,16.79
2018-05-13T02:29:08.527Z,16.76
2018-05-13T02:31:43.266Z,16.74
2018-05-13T02:34:18.978Z,16.75
2018-05-13T02:36:53.990Z,16.73
2018-05-13T02:39:29.098Z,16.69
2018-05-13T02:42:03.870Z,16.68
2018-05-13T02:44:39.226Z,16.66
2018-05-13T02:47:14.285Z,16.63
2018-05-13T02:49:49.458Z,16.61
2018-05-13T02:52:24.859Z,16.61
2018-05-13T02:54:59.315Z,16.63
2018-05-13T02:57:34.001Z,16.62
2018-05-13T03:00:08.732Z,16.62
2018-05-13T03:02:43.686Z,16.59
2018-05-13T03:05:18.148Z,16.57
2018-05-13T03:07:53.175Z,16.53
2018-05-13T03:10:28.310Z,16.50
2018-05-13T03:13:03.413Z,16.46
2018-05-13T03:15:38.035Z,16.42
2018-05-13T03:18:13.023Z,16.39
2018-05-13T03:20:48.501Z,16.38
2018-05-13T03:23:24.121Z,16.36
2018-05-13T03:25:59.424Z,16.34
2018-05-13T03:28:35.010Z,16.33
2018-05-13T03:31:10.027Z,16.33
2018-05-13T03:33:44.710Z,16.31
2018-05-13T03:36:20.176Z,16.28
2018-05-13T03:38:55.368Z,16.27
2018-05-13T03:41:30.335Z,16.29
2018-05-13T03:44:05.181Z,16.32
2018-05-13T03:46:41.427Z,16.34
2018-05-13T03:49:16.296Z,16.34
2018-05-13T03:51:51.438Z,16.32
2018-05-13T03:54:26.349Z,16.31
2018-05-13T03:57:01.493Z,16.33
2018-05-13T03:59:36.447Z,16.35
2018-05-13T04:02:11.550Z,16.35
2018-05-13T04:04:47.046Z,16.36
2018-05-13T04:07:22.133Z,16.38
2018-05-13T04:10:07.866Z,16.38
2018-05-13T04:12:53.802Z,16.40
2018-05-13T04:15:27.714Z,16.44
2018-05-13T04:18:02.688Z,16.48
2018-05-13T04:20:38.252Z,16.54
2018-05-13T04:23:13.151Z,16.63
2018-05-13T04:25:48.294Z,16.70
2018-05-13T04:28:23.169Z,16.77
2018-05-13T04:30:57.811Z,16.84
2018-05-13T04:33:32.689Z,16.91
2018-05-13T04:36:07.370Z,17.01
2018-05-13T04:38:42.631Z,17.01
2018-05-13T04:41:17.725Z,16.99
2018-05-13T04:43:52.698Z,16.95
2018-05-13T04:46:27.940Z,16.92
2018-05-13T04:49:03.269Z,16.89
2018-05-13T04:51:38.514Z,16.89
2018-05-13T04:54:13.700Z,16.92
2018-05-13T04:56:49.267Z,16.96
2018-05-13T04:59:24.300Z,17.01
2018-05-13T05:01:59.523Z,17.06
2018-05-13T05:04:34.314Z,17.10
2018-05-13T05:07:09.246Z,17.14
2018-05-13T05:09:44.365Z,17.21
2018-05-13T05:12:19.225Z,17.34
2018-05-13T05:14:54.553Z,17.41
2018-05-13T05:17:29.569Z,17.48
2018-05-13T05:20:04.114Z,17.52
2018-05-13T05:22:38.834Z,17.56
2018-05-13T05:25:14.350Z,17.64
2018-05-13T05:27:49.671Z,17.67
2018-05-13T05:30:24.707Z,17.68
2018-05-13T05:32:59.528Z,17.72
2018-05-13T05:35:34.857Z,17.84
2018-05-13T05:38:10.429Z,17.93
2018-05-13T05:40:45.633Z,18.00
2018-05-13T05:43:20.341Z,18.06
2018-05-13T05:45:55.917Z,18.12
2018-05-13T05:48:30.558Z,18.17
2018-05-13T05:51:06.599Z,18.28
2018-05-13T05:53:41.823Z,18.39
2018-05-13T05:56:17.530Z,18.52
2018-05-13T05:58:52.745Z,18.65
2018-05-13T06:01:27.592Z,18.78
2018-05-13T06:04:02.425Z,18.91
2018-05-13T06:06:37.578Z,19.06
2018-05-13T06:09:12.562Z,19.16
2018-05-13T06:11:47.042Z,19.21
2018-05-13T06:14:22.549Z,19.32
2018-05-13T06:16:57.714Z,19.49
2018-05-13T06:19:32.269Z,19.61
2018-05-13T06:22:07.468Z,19.70
2018-05-13T06:24:42.824Z,19.78
2018-05-13T06:27:17.609Z,19.81
2018-05-13T06:29:52.596Z,19.87
2018-05-13T06:32:27.198Z,19.94
2018-05-13T06:35:01.669Z,19.97
2018-05-13T06:37:37.074Z,19.96
2018-05-13T06:40:11.910Z,19.95
2018-05-13T06:42:47.763Z,20.11
2018-05-13T06:45:22.737Z,20.31
2018-05-13T06:47:58.565Z,20.41
2018-05-13T06:50:33.969Z,20.51
2018-05-13T06:53:09.280Z,20.67
2018-05-13T06:55:44.708Z,20.89
2018-05-13T06:58:20.530Z,21.18
2018-05-13T07:00:55.446Z,21.41
2018-05-13T07:03:30.398Z,21.64
2018-05-13T07:06:04.855Z,21.80
2018-05-13T07:08:39.973Z,21.92
2018-05-13T07:11:14.914Z,21.98
2018-05-13T07:13:50.121Z,21.98
2018-05-13T07:16:25.722Z,21.90
2018-05-13T07:19:00.539Z,21.81
2018-05-13T07:21:35.956Z,21.68
2018-05-13T07:24:11.178Z,21.56
2018-05-13T07:26:47.793Z,21.45
2018-05-13T07:29:22.559Z,21.45
2018-05-13T07:31:57.742Z,21.56
2018-05-13T07:34:32.682Z,21.70
2018-05-13T07:37:07.925Z,21.74
2018-05-13T07:39:43.413Z,21.77
2018-05-13T07:42:18.134Z,21.87
2018-05-13T07:44:53.238Z,21.98
2018-05-13T07:47:28.734Z,22.16
2018-05-13T07:50:03.723Z,22.28
2018-05-13T07:52:38.620Z,22.44
2018-05-13T07:55:13.710Z,22.57
2018-05-13T07:57:49.413Z,22.65
2018-05-13T08:00:24.531Z,22.74
2018-05-13T08:02:59.769Z,22.86
2018-05-13T08:05:35.125Z,22.95
2018-05-13T08:08:09.500Z,22.92
2018-05-13T08:10:45.100Z,22.76
2018-05-13T08:13:20.638Z,22.62
2018-05-13T08:15:55.211Z,22.68
2018-05-13T08:18:30.678Z,23.05
2018-05-13T08:21:05.687Z,23.52
2018-05-13T08:23:42.042Z,23.84
2018-05-13T08:26:16.518Z,23.95
2018-05-13T08:28:51.395Z,24.02
2018-05-13T08:31:26.690Z,24.15
2018-05-13T08:34:01.726Z,24.40
2018-05-13T08:36:36.844Z,24.71
2018-05-13T08:39:11.848Z,25.03
2018-05-13T08:41:47.185Z,25.20
2018-05-13T08:44:22.170Z,25.31
2018-05-13T08:46:57.067Z,25.49
2018-05-13T08:49:32.393Z,25.67
2018-05-13T08:52:07.813Z,25.83
2018-05-13T08:54:42.918Z,25.93
2018-05-13T08:57:17.909Z,25.79
2018-05-13T08:59:54.046Z,25.48
2018-05-13T09:02:29.158Z,25.43
2018-05-13T09:05:04.139Z,25.56
2018-05-13T09:07:38.910Z,25.71
2018-05-13T09:10:13.902Z,25.66
2018-05-13T09:12:49.231Z,25.67
2018-05-13T09:15:23.902Z,25.76
2018-05-13T09:17:58.625Z,25.94
2018-05-13T09:20:33.682Z,25.92
2018-05-13T09:23:08.729Z,26.05
2018-05-13T09:25:43.618Z,26.36
2018-05-13T09:28:18.235Z,26.75
2018-05-13T09:30:53.494Z,26.85
2018-05-13T09:33:28.980Z,26.92
2018-05-13T09:36:03.984Z,27.11
2018-05-13T09:38:39.015Z,27.23
2018-05-13T09:41:13.977Z,27.38
2018-05-13T09:43:49.369Z,27.45
2018-05-13T09:46:24.214Z,27.38
2018-05-13T09:48:58.917Z,27.31
2018-05-13T09:51:34.198Z,27.07
2018-05-13T09:54:09.199Z,26.96
2018-05-13T09:56:44.198Z,27.12
2018-05-13T09:59:19.202Z,27.43
2018-05-13T10:01:54.096Z,27.18
2018-05-13T10:04:29.041Z,26.99
2018-05-13T10:07:04.065Z,26.91
2018-05-13T10:09:39.576Z,26.89
2018-05-13T10:12:14.945Z,27.04
2018-05-13T10:14:50.272Z,27.36
2018-05-13T10:17:25.364Z,27.68
2018-05-13T10:19:59.937Z,28.08
2018-05-13T10:22:35.366Z,28.26
2018-05-13T10:25:10.378Z,28.31
2018-05-13T10:27:45.206Z,28.48
2018-05-13T10:30:20.965Z,28.53
2018-05-13T10:32:56.082Z,28.55
2018-05-13T10:35:31.429Z,28.59
2018-05-13T10:38:05.714Z,28.74
2018-05-13T10:40:40.502Z,29.06
2018-05-13T10:43:15.229Z,29.13
2018-05-13T10:45:50.337Z,29.01
2018-05-13T10:48:25.180Z,28.99
2018-05-13T10:51:00.430Z,29.13
2018-05-13T10:53:35.591Z,29.16
2018-05-13T10:56:10.506Z,29.27
2018-05-13T10:58:46.318Z,29.62
2018-05-13T11:01:21.166Z,29.82
2018-05-13T11:03:56.402Z,29.90
2018-05-13T11:06:32.143Z,30.03
2018-05-13T11:09:06.338Z,30.24
2018-05-13T11:11:42.506Z,30.29
2018-05-13T11:14:17.362Z,30.22
2018-05-13T11:16:52.510Z,30.23
2018-05-13T11:19:27.282Z,30.07
2018-05-13T11:22:02.272Z,29.97
2018-05-13T11:24:37.261Z,29.89
2018-05-13T11:27:11.754Z,29.80
2018-05-13T11:29:47.416Z,29.60
2018-05-13T11:32:22.454Z,29.45
2018-05-13T11:34:57.682Z,29.58
2018-05-13T11:37:33.232Z,29.59
2018-05-13T11:40:08.434Z,29.53
2018-05-13T11:42:43.490Z,29.47
2018-05-13T11:45:19.270Z,29.64
2018-05-13T11:47:54.523Z,29.83
2018-05-13T11:50:29.522Z,30.12
2018-05-13T11:53:04.249Z,30.17
2018-05-13T11:55:39.281Z,29.99
2018-05-13T11:58:14.269Z,29.97
2018-05-13T12:00:49.705Z,29.97
2018-05-13T12:03:24.367Z,30.03
2018-05-13T12:05:58.822Z,30.24
2018-05-13T12:08:33.750Z,30.34
2018-05-13T12:11:08.776Z,30.39
2018-05-13T12:13:43.908Z,30.36
2018-05-13T12:16:19.295Z,30.26
2018-05-13T12:18:53.919Z,30.28
2018-05-13T12:21:28.804Z,30.39
2018-05-13T12:24:04.070Z,30.46
2018-05-13T12:26:39.614Z,30.47
2018-05-13T12:29:14.965Z,30.44
2018-05-13T12:31:49.898Z,30.32
2018-05-13T12:34:25.290Z,30.25
2018-05-13T12:37:00.958Z,30.45
2018-05-13T12:39:35.814Z,30.66
2018-05-13T12:42:11.068Z,30.55
2018-05-13T12:44:46.494Z,30.50
2018-05-13T12:47:21.803Z,30.63
2018-05-13T12:49:57.275Z,30.72
2018-05-13T12:52:32.366Z,30.78
2018-05-13T12:55:08.054Z,30.79
2018-05-13T12:57:43.918Z,30.88
2018-05-13T13:00:17.998Z,30.75
2018-05-13T13:02:53.442Z,30.44
2018-05-13T13:05:28.607Z,29.96
2018-05-13T13:08:04.114Z,29.81
2018-05-13T13:10:39.062Z,29.93
2018-05-13T13:13:14.272Z,30.08
2018-05-13T13:15:49.138Z,30.12
2018-05-13T13:18:23.921Z,30.07
2018-05-13T13:20:58.698Z,29.88
2018-05-13T13:23:33.365Z,29.68
2018-05-13T13:26:08.919Z,29.73
2018-05-13T13:28:44.041Z,29.68
2018-05-13T13:31:19.091Z,29.73
2018-05-13T13:33:54.019Z,29.81
2018-05-13T13:36:29.079Z,29.86
2018-05-13T13:39:03.522Z,29.90
2018-05-13T13:41:38.301Z,30.14
2018-05-13T13:44:13.297Z,30.43
2018-05-13T13:46:48.075Z,30.46
2018-05-13T13:49:23.205Z,30.44
2018-05-13T13:51:59.288Z,30.23
2018-05-13T13:54:34.613Z,29.92
2018-05-13T13:57:09.259Z,29.83
2018-05-13T13:59:44.061Z,29.71
2018-05-13T14:02:19.005Z,29.59
2018-05-13T14:04:54.375Z,29.54
2018-05-13T14:07:29.402Z,29.60
2018-05-13T14:10:04.007Z,29.70
2018-05-13T14:12:38.523Z,29.87
2018-05-13T14:15:13.366Z,30.22
2018-05-13T14:17:48.609Z,30.41
2018-05-13T14:20:23.779Z,30.37
2018-05-13T14:22:59.370Z,30.22
2018-05-13T14:25:34.632Z,29.89
2018-05-13T14:28:09.550Z,29.79
2018-05-13T14:30:44.941Z,29.87
2018-05-13T14:33:19.534Z,29.83
2018-05-13T14:35:55.150Z,29.68
2018-05-13T14:38:29.742Z,29.63
2018-05-13T14:41:04.531Z,29.69
2018-05-13T14:43:39.242Z,29.68
2018-05-13T14:46:14.463Z,29.76
2018-05-13T14:48:50.068Z,29.85
2018-05-13T14:51:25.080Z,29.68
2018-05-13T14:53:59.683Z,29.33
2018-05-13T14:56:34.891Z,28.93
2018-05-13T14:59:11.248Z,28.79
2018-05-13T15:01:45.861Z,28.68
2018-05-13T15:04:20.620Z,28.68
2018-05-13T15:06:55.846Z,28.67
2018-05-13T15:09:31.293Z,28.61
2018-05-13T15:12:07.080Z,28.56
2018-05-13T15:14:42.348Z,28.50
2018-05-13T15:17:17.383Z,28.48
2018-05-13T15:19:51.836Z,28.39
2018-05-13T15:22:32.707Z,28.28
2018-05-13T15:25:07.822Z,28.21
2018-05-13T15:27:42.669Z,28.09
2018-05-13T15:30:18.232Z,27.91
2018-05-13T15:32:53.540Z,27.85
2018-05-13T15:35:28.382Z,27.84
2018-05-13T15:38:03.383Z,27.88
2018-05-13T15:40:38.552Z,27.94
2018-05-13T15:43:13.929Z,27.95
2018-05-13T15:45:49.313Z,27.61
2018-05-13T15:48:24.385Z,26.94
2018-05-13T15:50:59.794Z,26.29
2018-05-13T15:53:34.474Z,25.66
2018-05-13T15:56:09.429Z,25.20
2018-05-13T15:58:44.522Z,24.95
2018-05-13T16:01:19.500Z,24.71
2018-05-13T16:03:54.726Z,24.50
2018-05-13T16:06:29.320Z,24.31
2018-05-13T16:09:03.338Z,23.95
2018-05-13T16:11:38.542Z,23.66
2018-05-13T16:14:14.386Z,23.41
2018-05-13T16:16:49.589Z,23.08
2018-05-13T16:19:24.440Z,22.97
2018-05-13T16:21:59.854Z,22.99
2018-05-13T16:24:34.449Z,22.98
2018-05-13T16:27:09.387Z,22.91
2018-05-13T16:29:44.590Z,22.91
2018-05-13T16:32:19.571Z,22.78
2018-05-13T16:34:55.006Z,22.74
2018-05-13T16:37:30.385Z,22.71
2018-05-13T16:40:05.093Z,22.66
2018-05-13T16:42:39.826Z,22.71
2018-05-13T16:45:14.799Z,22.54
2018-05-13T16:47:49.372Z,22.25
2018-05-13T16:50:24.381Z,22.05
2018-05-13T16:52:59.989Z,21.94
2018-05-13T16:55:35.268Z,21.82
2018-05-13T16:58:10.477Z,21.75
2018-05-13T17:00:45.517Z,21.72
2018-05-13T17:03:20.089Z,21.58
2018-05-13T17:05:55.858Z,21.56
2018-05-13T17:08:30.431Z,21.66
2018-05-13T17:11:05.661Z,21.70
2018-05-13T17:13:41.274Z,21.69
2018-05-13T17:16:16.936Z,21.54
2018-05-13T17:18:51.749Z,21.44
2018-05-13T17:21:27.126Z,21.51
2018-05-13T17:24:02.160Z,21.71
2018-05-13T17:26:37.169Z,21.92
2018-05-13T17:29:12.178Z,22.07
2018-05-13T17:31:46.935Z,21.89
2018-05-13T17:34:21.782Z,21.71
2018-05-13T17:36:56.258Z,21.76
2018-05-13T17:39:31.298Z,21.82
2018-05-13T17:42:06.950Z,21.77
2018-05-13T17:44:41.969Z,21.77
2018-05-13T17:47:16.644Z,21.80
2018-05-13T17:49:51.486Z,21.76
2018-05-13T17:52:26.362Z,21.51
2018-05-13T17:55:01.930Z,21.32
2018-05-13T17:57:36.924Z,21.18
2018-05-13T18:00:12.288Z,21.19
2018-05-13T18:02:46.855Z,21.26
2018-05-13T18:05:22.003Z,21.39
2018-05-13T18:07:57.198Z,21.49
2018-05-13T18:10:32.552Z,21.49
2018-05-13T18:13:08.100Z,21.53
2018-05-13T18:15:43.562Z,21.45
2018-05-13T18:18:18.956Z,21.28
2018-05-13T18:20:53.944Z,21.21
2018-05-13T18:23:28.894Z,21.20
2018-05-13T18:26:04.147Z,21.28
2018-05-13T18:28:39.041Z,21.31
2018-05-13T18:31:14.183Z,21.28
2018-05-13T18:33:49.174Z,21.26
2018-05-13T18:36:23.814Z,21.21
2018-05-13T18:39:00.431Z,21.19
2018-05-13T18:41:35.058Z,21.23
2018-05-13T18:44:10.233Z,21.28
2018-05-13T18:46:45.682Z,21.34
2018-05-13T18:49:21.023Z,21.33
2018-05-13T18:51:56.077Z,21.26
2018-05-13T18:54:31.093Z,21.19
2018-05-13T18:57:06.171Z,21.12
2018-05-13T18:59:41.296Z,21.00
2018-05-13T19:02:16.394Z,20.84
2018-05-13T19:04:51.112Z,20.68
2018-05-13T19:07:26.097Z,20.50
2018-05-13T19:10:01.390Z,20.28
2018-05-13T19:12:36.107Z,20.16
2018-05-13T19:15:11.237Z,20.08
2018-05-13T19:17:46.422Z,20.03
2018-05-13T19:20:21.102Z,20.00
2018-05-13T19:22:56.086Z,19.97
2018-05-13T19:25:31.081Z,19.93
2018-05-13T19:28:06.074Z,19.85
2018-05-13T19:30:41.026Z,19.77
2018-05-13T19:33:16.361Z,19.71
2018-05-13T19:35:51.315Z,19.69
2018-05-13T19:38:26.257Z,19.68
2018-05-13T19:41:02.182Z,19.66
2018-05-13T19:43:37.118Z,19.61
2018-05-13T19:46:12.322Z,19.52
2018-05-13T19:48:47.153Z,19.48
2018-05-13T19:51:22.107Z,19.64
2018-05-13T19:53:57.302Z,19.78
2018-05-13T19:56:32.188Z,19.82
2018-05-13T19:59:07.330Z,19.74
2018-05-13T20:01:42.751Z,19.62
2018-05-13T20:04:18.170Z,19.50
2018-05-13T20:06:53.184Z,19.43
2018-05-13T20:09:28.198Z,19.42
2018-05-13T20:12:03.453Z,19.40
2018-05-13T20:14:38.302Z,19.36
2018-05-13T20:17:13.399Z,19.37
2018-05-13T20:19:48.284Z,19.41
2018-05-13T20:22:23.141Z,19.46
2018-05-13T20:24:58.262Z,19.47
2018-05-13T20:27:33.211Z,19.54
2018-05-13T20:30:09.123Z,19.65
2018-05-13T20:32:44.279Z,19.70
2018-05-13T20:35:19.457Z,19.71
2018-05-13T20:37:54.275Z,19.66
2018-05-13T20:40:29.437Z,19.63
2018-05-13T20:43:04.214Z,19.65
2018-05-13T20:45:39.434Z,19.64
2018-05-13T20:48:14.534Z,19.63
2018-05-13T20:50:49.770Z,19.65
2018-05-13T20:53:24.817Z,19.71
2018-05-13T20:56:00.566Z,19.72
2018-05-13T20:58:35.306Z,19.60
2018-05-13T21:01:10.600Z,19.55
2018-05-13T21:03:45.388Z,19.44
2018-05-13T21:06:20.662Z,19.33
2018-05-13T21:08:55.470Z,19.32
2018-05-13T21:11:30.518Z,19.39
2018-05-13T21:14:04.931Z,19.43
2018-05-13T21:16:39.860Z,19.39
2018-05-13T21:19:15.503Z,19.30
2018-05-13T21:21:50.708Z,19.23
2018-05-13T21:24:26.403Z,19.11
2018-05-13T21:27:01.675Z,18.99
2018-05-13T21:29:36.505Z,18.87
2018-05-13T21:32:12.040Z,18.79
2018-05-13T21:34:46.902Z,18.74
2018-05-13T21:37:21.802Z,18.71
2018-05-13T21:39:57.466Z,18.64
2018-05-13T21:42:32.422Z,18.56
2018-05-13T21:45:07.409Z,18.52
2018-05-13T21:47:42.457Z,18.48
2018-05-13T21:50:17.558Z,18.43
2018-05-13T21:52:52.557Z,18.41
2018-05-13T21:55:27.598Z,18.38
2018-05-13T21:58:02.513Z,18.35
2018-05-13T22:00:37.187Z,18.30
2018-05-13T22:03:12.777Z,18.27
2018-05-13T22:05:47.601Z,18.25
2018-05-13T22:08:22.616Z,18.25
2018-05-13T22:10:57.091Z,18.25
2018-05-13T22:13:31.774Z,18.18
2018-05-13T22:16:07.134Z,18.13
2018-05-13T22:18:41.666Z,18.12
2018-05-13T22:21:16.963Z,18.11
2018-05-13T22:23:52.556Z,18.07
2018-05-13T22:26:27.742Z,18.00
2018-05-13T22:29:02.993Z,17.96
2018-05-13T22:31:37.586Z,17.91
2018-05-13T22:34:12.888Z,17.87
2018-05-13T22:36:48.021Z,17.82
2018-05-13T22:39:23.034Z,17.77
2018-05-13T22:41:58.043Z,17.73
2018-05-13T22:44:33.439Z,17.69
2018-05-13T22:47:08.542Z,17.68
2018-05-13T22:49:43.597Z,17.64
2018-05-13T22:52:18.820Z,17.61
2018-05-13T22:54:53.990Z,17.54
2018-05-13T22:57:28.835Z,17.51
2018-05-13T23:00:03.736Z,17.47
2018-05-13T23:02:38.755Z,17.45
2018-05-13T23:05:13.546Z,17.43
2018-05-13T23:07:48.675Z,17.41
2018-05-13T23:10:23.571Z,17.38
2018-05-13T23:12:58.819Z,17.36
2018-05-13T23:15:33.808Z,17.36
2018-05-13T23:18:08.991Z,17.33
2018-05-13T23:20:44.199Z,17.30
2018-05-13T23:23:19.630Z,17.25
2018-05-13T23:25:54.662Z,17.21
2018-05-13T23:28:30.192Z,17.17
2018-05-13T23:31:05.415Z,17.16
2018-05-13T23:33:39.841Z,17.14
2018-05-13T23:36:15.033Z,17.09
2018-05-13T23:38:49.815Z,17.04
2018-05-13T23:41:24.724Z,16.98
2018-05-13T23:44:01.050Z,16.93
2018-05-13T23:46:36.157Z,16.89
2018-05-13T23:49:10.998Z,16.84
2018-05-13T23:51:45.753Z,16.80
2018-05-13T23:54:21.138Z,16.76
2018-05-13T23:56:56.731Z,16.75
2018-05-13T23:59:31.235Z,16.75
